sensor_id;sensor_type;location;lat;lon;timestamp;P1;durP1;ratioP1;P2;durP2;ratioP2
18102;SDS011;9178;51.120;6.192;2022-07-06T00:00:12;2.93;;;1.50;;
18102;SDS011;9178;51.120;6.192;2022-07-06T00:02:39;1.40;;;1.30;;
18102;SDS011;9178;51.120;6.192;2022-07-06T00:05:07;3.73;;;1.40;;
18102;SDS011;9178;51.120;6.192;2022-07-06T00:07:35;1.43;;;1.33;;
18102;SDS011;9178;51.120;6.192;2022-07-06T00:10:02;2.07;;;1.53;;
18102;SDS011;9178;51.120;6.192;2022-07-06T00:12:29;3.53;;;1.47;;
18102;SDS011;9178;51.120;6.192;2022-07-06T00:14:56;2.03;;;1.43;;
18102;SDS011;9178;51.120;6.192;2022-07-06T00:17:23;2.47;;;1.37;;
18102;SDS011;9178;51.120;6.192;2022-07-06T00:19:50;3.67;;;1.53;;
18102;SDS011;9178;51.120;6.192;2022-07-06T00:22:17;3.07;;;1.77;;
18102;SDS011;9178;51.120;6.192;2022-07-06T00:24:45;3.23;;;1.70;;
18102;SDS011;9178;51.120;6.192;2022-07-06T00:27:12;1.70;;;1.60;;
18102;SDS011;9178;51.120;6.192;2022-07-06T00:29:39;1.90;;;1.47;;
18102;SDS011;9178;51.120;6.192;2022-07-06T00:32:08;2.37;;;1.50;;
18102;SDS011;9178;51.120;6.192;2022-07-06T00:34:35;3.00;;;2.23;;
18102;SDS011;9178;51.120;6.192;2022-07-06T00:37:04;2.63;;;1.40;;
18102;SDS011;9178;51.120;6.192;2022-07-06T00:39:31;5.30;;;1.80;;
18102;SDS011;9178;51.120;6.192;2022-07-06T00:41:59;3.90;;;1.70;;
18102;SDS011;9178;51.120;6.192;2022-07-06T00:44:26;1.90;;;1.67;;
18102;SDS011;9178;51.120;6.192;2022-07-06T00:46:54;4.03;;;2.40;;
18102;SDS011;9178;51.120;6.192;2022-07-06T00:49:20;3.50;;;2.13;;
18102;SDS011;9178;51.120;6.192;2022-07-06T00:52:05;2.60;;;1.63;;
18102;SDS011;9178;51.120;6.192;2022-07-06T00:54:32;4.27;;;2.20;;
18102;SDS011;9178;51.120;6.192;2022-07-06T00:57:01;2.30;;;1.83;;
18102;SDS011;9178;51.120;6.192;2022-07-06T00:59:29;3.37;;;2.13;;
18102;SDS011;9178;51.120;6.192;2022-07-06T01:01:56;2.97;;;1.70;;
18102;SDS011;9178;51.120;6.192;2022-07-06T01:04:24;5.17;;;2.30;;
18102;SDS011;9178;51.120;6.192;2022-07-06T01:06:51;3.97;;;2.07;;
18102;SDS011;9178;51.120;6.192;2022-07-06T01:09:18;4.63;;;2.00;;
18102;SDS011;9178;51.120;6.192;2022-07-06T01:11:45;5.17;;;2.20;;
18102;SDS011;9178;51.120;6.192;2022-07-06T01:14:13;3.90;;;2.10;;
18102;SDS011;9178;51.120;6.192;2022-07-06T01:16:40;2.27;;;2.07;;
18102;SDS011;9178;51.120;6.192;2022-07-06T01:19:07;4.27;;;2.30;;
18102;SDS011;9178;51.120;6.192;2022-07-06T01:21:37;3.93;;;2.23;;
18102;SDS011;9178;51.120;6.192;2022-07-06T01:24:04;5.97;;;2.30;;
18102;SDS011;9178;51.120;6.192;2022-07-06T01:26:31;3.10;;;2.20;;
18102;SDS011;9178;51.120;6.192;2022-07-06T01:28:58;2.70;;;2.00;;
18102;SDS011;9178;51.120;6.192;2022-07-06T01:31:25;4.10;;;2.20;;
18102;SDS011;9178;51.120;6.192;2022-07-06T01:33:53;4.83;;;2.47;;
18102;SDS011;9178;51.120;6.192;2022-07-06T01:36:22;4.70;;;2.33;;
18102;SDS011;9178;51.120;6.192;2022-07-06T01:38:51;4.03;;;2.60;;
18102;SDS011;9178;51.120;6.192;2022-07-06T01:41:19;7.43;;;2.30;;
18102;SDS011;9178;51.120;6.192;2022-07-06T01:43:46;3.47;;;2.40;;
18102;SDS011;9178;51.120;6.192;2022-07-06T01:46:13;4.70;;;2.50;;
18102;SDS011;9178;51.120;6.192;2022-07-06T01:48:40;5.23;;;2.20;;
18102;SDS011;9178;51.120;6.192;2022-07-06T01:51:08;2.40;;;1.93;;
18102;SDS011;9178;51.120;6.192;2022-07-06T01:53:35;3.00;;;2.30;;
18102;SDS011;9178;51.120;6.192;2022-07-06T01:56:03;3.23;;;2.17;;
18102;SDS011;9178;51.120;6.192;2022-07-06T01:58:30;4.17;;;2.30;;
18102;SDS011;9178;51.120;6.192;2022-07-06T02:00:57;2.10;;;2.00;;
18102;SDS011;9178;51.120;6.192;2022-07-06T02:03:24;4.73;;;2.70;;
18102;SDS011;9178;51.120;6.192;2022-07-06T02:05:51;4.10;;;2.10;;
18102;SDS011;9178;51.120;6.192;2022-07-06T02:08:18;2.57;;;2.37;;
18102;SDS011;9178;51.120;6.192;2022-07-06T02:10:45;2.70;;;2.20;;
18102;SDS011;9178;51.120;6.192;2022-07-06T02:13:13;4.17;;;2.50;;
18102;SDS011;9178;51.120;6.192;2022-07-06T02:15:40;3.27;;;2.07;;
18102;SDS011;9178;51.120;6.192;2022-07-06T02:18:07;4.10;;;2.47;;
18102;SDS011;9178;51.120;6.192;2022-07-06T02:20:33;3.17;;;2.33;;
18102;SDS011;9178;51.120;6.192;2022-07-06T02:23:00;3.80;;;2.23;;
18102;SDS011;9178;51.120;6.192;2022-07-06T02:25:27;4.67;;;2.87;;
18102;SDS011;9178;51.120;6.192;2022-07-06T02:27:54;5.00;;;2.67;;
18102;SDS011;9178;51.120;6.192;2022-07-06T02:30:22;4.50;;;2.60;;
18102;SDS011;9178;51.120;6.192;2022-07-06T02:32:49;5.10;;;2.67;;
18102;SDS011;9178;51.120;6.192;2022-07-06T02:35:16;3.77;;;2.77;;
18102;SDS011;9178;51.120;6.192;2022-07-06T02:37:43;5.23;;;2.80;;
18102;SDS011;9178;51.120;6.192;2022-07-06T02:40:10;4.57;;;2.70;;
18102;SDS011;9178;51.120;6.192;2022-07-06T02:42:37;3.87;;;2.57;;
18102;SDS011;9178;51.120;6.192;2022-07-06T02:45:04;4.03;;;2.87;;
18102;SDS011;9178;51.120;6.192;2022-07-06T02:47:33;3.83;;;2.90;;
18102;SDS011;9178;51.120;6.192;2022-07-06T02:50:00;4.70;;;2.80;;
18102;SDS011;9178;51.120;6.192;2022-07-06T02:52:27;3.13;;;2.50;;
18102;SDS011;9178;51.120;6.192;2022-07-06T02:54:54;4.77;;;2.90;;
18102;SDS011;9178;51.120;6.192;2022-07-06T02:57:21;4.87;;;2.93;;
18102;SDS011;9178;51.120;6.192;2022-07-06T02:59:47;4.93;;;2.73;;
18102;SDS011;9178;51.120;6.192;2022-07-06T03:02:15;3.13;;;2.77;;
18102;SDS011;9178;51.120;6.192;2022-07-06T03:04:43;4.03;;;3.00;;
18102;SDS011;9178;51.120;6.192;2022-07-06T03:07:10;4.73;;;3.33;;
18102;SDS011;9178;51.120;6.192;2022-07-06T03:09:37;4.27;;;2.80;;
18102;SDS011;9178;51.120;6.192;2022-07-06T03:12:04;4.70;;;3.30;;
18102;SDS011;9178;51.120;6.192;2022-07-06T03:14:31;4.33;;;3.17;;
18102;SDS011;9178;51.120;6.192;2022-07-06T03:16:58;5.73;;;3.10;;
18102;SDS011;9178;51.120;6.192;2022-07-06T03:19:25;3.37;;;3.00;;
18102;SDS011;9178;51.120;6.192;2022-07-06T03:21:53;5.63;;;2.80;;
18102;SDS011;9178;51.120;6.192;2022-07-06T03:24:20;4.90;;;3.30;;
18102;SDS011;9178;51.120;6.192;2022-07-06T03:26:47;5.10;;;2.93;;
18102;SDS011;9178;51.120;6.192;2022-07-06T03:29:14;3.33;;;3.00;;
18102;SDS011;9178;51.120;6.192;2022-07-06T03:31:40;3.20;;;2.90;;
18102;SDS011;9178;51.120;6.192;2022-07-06T03:34:07;5.63;;;3.00;;
18102;SDS011;9178;51.120;6.192;2022-07-06T03:36:34;4.53;;;3.60;;
18102;SDS011;9178;51.120;6.192;2022-07-06T03:39:02;3.37;;;3.07;;
18102;SDS011;9178;51.120;6.192;2022-07-06T03:41:29;5.00;;;3.23;;
18102;SDS011;9178;51.120;6.192;2022-07-06T03:43:57;5.47;;;3.77;;
18102;SDS011;9178;51.120;6.192;2022-07-06T03:46:24;5.27;;;3.50;;
18102;SDS011;9178;51.120;6.192;2022-07-06T03:48:50;6.47;;;3.57;;
18102;SDS011;9178;51.120;6.192;2022-07-06T03:51:17;3.97;;;2.83;;
18102;SDS011;9178;51.120;6.192;2022-07-06T03:53:44;4.17;;;3.13;;
18102;SDS011;9178;51.120;6.192;2022-07-06T03:56:12;6.07;;;3.43;;
18102;SDS011;9178;51.120;6.192;2022-07-06T03:58:54;4.83;;;3.33;;
18102;SDS011;9178;51.120;6.192;2022-07-06T04:01:22;4.87;;;3.37;;
18102;SDS011;9178;51.120;6.192;2022-07-06T04:03:49;5.30;;;3.00;;
18102;SDS011;9178;51.120;6.192;2022-07-06T04:06:16;5.50;;;3.37;;
18102;SDS011;9178;51.120;6.192;2022-07-06T04:08:43;3.30;;;3.00;;
18102;SDS011;9178;51.120;6.192;2022-07-06T04:11:09;6.00;;;3.30;;
18102;SDS011;9178;51.120;6.192;2022-07-06T04:13:38;4.23;;;3.10;;
18102;SDS011;9178;51.120;6.192;2022-07-06T04:16:05;6.00;;;3.27;;
18102;SDS011;9178;51.120;6.192;2022-07-06T04:18:32;3.83;;;3.30;;
18102;SDS011;9178;51.120;6.192;2022-07-06T04:20:59;3.33;;;3.03;;
18102;SDS011;9178;51.120;6.192;2022-07-06T04:23:27;3.83;;;3.10;;
18102;SDS011;9178;51.120;6.192;2022-07-06T04:25:54;4.90;;;3.80;;
18102;SDS011;9178;51.120;6.192;2022-07-06T04:28:20;3.40;;;3.10;;
18102;SDS011;9178;51.120;6.192;2022-07-06T04:30:48;4.40;;;3.43;;
18102;SDS011;9178;51.120;6.192;2022-07-06T04:33:15;5.07;;;3.33;;
18102;SDS011;9178;51.120;6.192;2022-07-06T04:35:42;3.37;;;3.07;;
18102;SDS011;9178;51.120;6.192;2022-07-06T04:38:09;4.80;;;3.53;;
18102;SDS011;9178;51.120;6.192;2022-07-06T04:40:36;3.50;;;3.20;;
18102;SDS011;9178;51.120;6.192;2022-07-06T04:43:04;4.53;;;3.40;;
18102;SDS011;9178;51.120;6.192;2022-07-06T04:45:30;4.43;;;4.00;;
18102;SDS011;9178;51.120;6.192;2022-07-06T04:47:59;5.47;;;3.87;;
18102;SDS011;9178;51.120;6.192;2022-07-06T04:50:26;5.97;;;4.30;;
18102;SDS011;9178;51.120;6.192;2022-07-06T04:52:52;4.33;;;3.67;;
18102;SDS011;9178;51.120;6.192;2022-07-06T04:55:19;5.23;;;3.70;;
18102;SDS011;9178;51.120;6.192;2022-07-06T04:57:46;7.20;;;4.50;;
18102;SDS011;9178;51.120;6.192;2022-07-06T05:00:13;6.33;;;4.03;;
18102;SDS011;9178;51.120;6.192;2022-07-06T05:02:41;6.63;;;3.70;;
18102;SDS011;9178;51.120;6.192;2022-07-06T05:05:09;3.87;;;3.10;;
18102;SDS011;9178;51.120;6.192;2022-07-06T05:07:36;4.93;;;3.37;;
18102;SDS011;9178;51.120;6.192;2022-07-06T05:10:06;5.13;;;3.90;;
18102;SDS011;9178;51.120;6.192;2022-07-06T05:12:34;6.30;;;4.60;;
18102;SDS011;9178;51.120;6.192;2022-07-06T05:15:01;7.00;;;4.57;;
18102;SDS011;9178;51.120;6.192;2022-07-06T05:17:28;5.13;;;4.37;;
18102;SDS011;9178;51.120;6.192;2022-07-06T05:19:54;8.50;;;5.17;;
18102;SDS011;9178;51.120;6.192;2022-07-06T05:22:23;7.47;;;5.47;;
18102;SDS011;9178;51.120;6.192;2022-07-06T05:24:50;6.90;;;5.43;;
18102;SDS011;9178;51.120;6.192;2022-07-06T05:27:17;8.70;;;5.73;;
18102;SDS011;9178;51.120;6.192;2022-07-06T05:29:44;8.20;;;5.30;;
18102;SDS011;9178;51.120;6.192;2022-07-06T05:32:11;7.87;;;5.33;;
18102;SDS011;9178;51.120;6.192;2022-07-06T05:34:38;9.53;;;5.63;;
18102;SDS011;9178;51.120;6.192;2022-07-06T05:37:05;6.73;;;5.23;;
18102;SDS011;9178;51.120;6.192;2022-07-06T05:39:33;13.47;;;5.60;;
18102;SDS011;9178;51.120;6.192;2022-07-06T05:42:00;7.77;;;5.43;;
18102;SDS011;9178;51.120;6.192;2022-07-06T05:44:26;7.80;;;5.63;;
18102;SDS011;9178;51.120;6.192;2022-07-06T05:46:53;6.57;;;5.43;;
18102;SDS011;9178;51.120;6.192;2022-07-06T05:49:41;6.43;;;5.03;;
18102;SDS011;9178;51.120;6.192;2022-07-06T05:52:25;10.50;;;5.70;;
18102;SDS011;9178;51.120;6.192;2022-07-06T05:54:53;7.30;;;5.30;;
18102;SDS011;9178;51.120;6.192;2022-07-06T05:57:20;7.97;;;5.23;;
18102;SDS011;9178;51.120;6.192;2022-07-06T05:59:47;7.83;;;4.63;;
18102;SDS011;9178;51.120;6.192;2022-07-06T06:02:14;8.17;;;4.13;;
18102;SDS011;9178;51.120;6.192;2022-07-06T06:04:41;6.77;;;4.50;;
18102;SDS011;9178;51.120;6.192;2022-07-06T06:07:08;8.07;;;3.90;;
18102;SDS011;9178;51.120;6.192;2022-07-06T06:09:34;5.90;;;3.93;;
18102;SDS011;9178;51.120;6.192;2022-07-06T06:12:03;5.00;;;3.63;;
18102;SDS011;9178;51.120;6.192;2022-07-06T06:14:30;6.20;;;3.67;;
18102;SDS011;9178;51.120;6.192;2022-07-06T06:16:57;7.60;;;3.97;;
18102;SDS011;9178;51.120;6.192;2022-07-06T06:19:24;7.97;;;3.60;;
18102;SDS011;9178;51.120;6.192;2022-07-06T06:21:51;3.80;;;2.87;;
18102;SDS011;9178;51.120;6.192;2022-07-06T06:24:18;7.03;;;3.50;;
18102;SDS011;9178;51.120;6.192;2022-07-06T06:26:45;3.93;;;3.30;;
18102;SDS011;9178;51.120;6.192;2022-07-06T06:29:13;4.63;;;3.43;;
18102;SDS011;9178;51.120;6.192;2022-07-06T06:31:40;5.10;;;2.60;;
18102;SDS011;9178;51.120;6.192;2022-07-06T06:34:06;5.87;;;3.17;;
18102;SDS011;9178;51.120;6.192;2022-07-06T06:36:33;4.07;;;2.80;;
18102;SDS011;9178;51.120;6.192;2022-07-06T06:39:00;2.87;;;2.17;;
18102;SDS011;9178;51.120;6.192;2022-07-06T06:41:27;4.57;;;2.40;;
18102;SDS011;9178;51.120;6.192;2022-07-06T06:43:54;4.17;;;2.30;;
18102;SDS011;9178;51.120;6.192;2022-07-06T06:46:22;4.87;;;2.50;;
18102;SDS011;9178;51.120;6.192;2022-07-06T06:48:49;3.10;;;2.30;;
18102;SDS011;9178;51.120;6.192;2022-07-06T06:51:16;3.87;;;2.10;;
18102;SDS011;9178;51.120;6.192;2022-07-06T06:53:43;4.63;;;2.10;;
18102;SDS011;9178;51.120;6.192;2022-07-06T06:56:10;3.37;;;1.77;;
18102;SDS011;9178;51.120;6.192;2022-07-06T06:58:37;2.93;;;2.00;;
18102;SDS011;9178;51.120;6.192;2022-07-06T07:01:04;4.60;;;1.87;;
18102;SDS011;9178;51.120;6.192;2022-07-06T07:03:32;5.13;;;1.70;;
18102;SDS011;9178;51.120;6.192;2022-07-06T07:06:01;5.33;;;1.83;;
18102;SDS011;9178;51.120;6.192;2022-07-06T07:08:29;3.27;;;1.60;;
18102;SDS011;9178;51.120;6.192;2022-07-06T07:10:56;2.83;;;1.63;;
18102;SDS011;9178;51.120;6.192;2022-07-06T07:13:23;3.97;;;1.40;;
18102;SDS011;9178;51.120;6.192;2022-07-06T07:15:50;4.07;;;1.43;;
18102;SDS011;9178;51.120;6.192;2022-07-06T07:18:17;3.23;;;1.00;;
18102;SDS011;9178;51.120;6.192;2022-07-06T07:20:46;1.17;;;0.80;;
18102;SDS011;9178;51.120;6.192;2022-07-06T07:23:12;1.20;;;0.88;;
18102;SDS011;9178;51.120;6.192;2022-07-06T07:25:40;4.15;;;0.90;;
18102;SDS011;9178;51.120;6.192;2022-07-06T07:28:07;1.88;;;0.80;;
18102;SDS011;9178;51.120;6.192;2022-07-06T07:30:34;1.02;;;0.65;;
18102;SDS011;9178;51.120;6.192;2022-07-06T07:33:01;2.05;;;0.70;;
18102;SDS011;9178;51.120;6.192;2022-07-06T07:35:28;1.75;;;0.70;;
18102;SDS011;9178;51.120;6.192;2022-07-06T07:37:56;1.83;;;0.55;;
18102;SDS011;9178;51.120;6.192;2022-07-06T07:40:23;1.13;;;0.50;;
18102;SDS011;9178;51.120;6.192;2022-07-06T07:42:50;2.78;;;0.63;;
18102;SDS011;9178;51.120;6.192;2022-07-06T07:45:17;2.80;;;0.50;;
18102;SDS011;9178;51.120;6.192;2022-07-06T07:47:44;2.50;;;0.63;;
18102;SDS011;9178;51.120;6.192;2022-07-06T07:50:11;3.17;;;0.85;;
18102;SDS011;9178;51.120;6.192;2022-07-06T07:52:38;1.33;;;0.60;;
18102;SDS011;9178;51.120;6.192;2022-07-06T07:55:07;1.43;;;0.70;;
18102;SDS011;9178;51.120;6.192;2022-07-06T07:57:35;2.40;;;0.60;;
18102;SDS011;9178;51.120;6.192;2022-07-06T08:00:02;2.53;;;0.60;;
18102;SDS011;9178;51.120;6.192;2022-07-06T08:02:30;2.00;;;0.50;;
18102;SDS011;9178;51.120;6.192;2022-07-06T08:04:57;1.43;;;0.50;;
18102;SDS011;9178;51.120;6.192;2022-07-06T08:07:24;2.43;;;0.43;;
18102;SDS011;9178;51.120;6.192;2022-07-06T08:09:51;1.53;;;0.53;;
18102;SDS011;9178;51.120;6.192;2022-07-06T08:12:19;2.10;;;0.53;;
18102;SDS011;9178;51.120;6.192;2022-07-06T08:14:46;0.40;;;0.40;;
18102;SDS011;9178;51.120;6.192;2022-07-06T08:17:13;2.23;;;0.47;;
18102;SDS011;9178;51.120;6.192;2022-07-06T08:19:40;2.30;;;0.30;;
18102;SDS011;9178;51.120;6.192;2022-07-06T08:22:07;2.03;;;0.60;;
18102;SDS011;9178;51.120;6.192;2022-07-06T08:24:35;1.43;;;0.50;;
18102;SDS011;9178;51.120;6.192;2022-07-06T08:27:02;0.80;;;0.43;;
18102;SDS011;9178;51.120;6.192;2022-07-06T08:29:31;0.87;;;0.30;;
18102;SDS011;9178;51.120;6.192;2022-07-06T08:31:58;1.17;;;0.90;;
18102;SDS011;9178;51.120;6.192;2022-07-06T08:34:29;1.48;;;0.85;;
18102;SDS011;9178;51.120;6.192;2022-07-06T08:36:56;2.30;;;0.40;;
18102;SDS011;9178;51.120;6.192;2022-07-06T08:39:23;2.30;;;0.47;;
18102;SDS011;9178;51.120;6.192;2022-07-06T08:41:50;2.35;;;0.70;;
18102;SDS011;9178;51.120;6.192;2022-07-06T08:44:17;2.45;;;0.40;;
18102;SDS011;9178;51.120;6.192;2022-07-06T08:46:46;1.80;;;1.20;;
18102;SDS011;9178;51.120;6.192;2022-07-06T08:49:18;0.60;;;0.55;;
18102;SDS011;9178;51.120;6.192;2022-07-06T08:51:46;3.10;;;1.20;;
18102;SDS011;9178;51.120;6.192;2022-07-06T08:54:13;1.67;;;0.43;;
18102;SDS011;9178;51.120;6.192;2022-07-06T08:56:41;1.15;;;0.60;;
18102;SDS011;9178;51.120;6.192;2022-07-06T08:59:08;1.67;;;0.45;;
18102;SDS011;9178;51.120;6.192;2022-07-06T09:01:36;1.75;;;0.35;;
18102;SDS011;9178;51.120;6.192;2022-07-06T09:04:06;0.65;;;0.50;;
18102;SDS011;9178;51.120;6.192;2022-07-06T09:06:34;1.88;;;0.43;;
18102;SDS011;9178;51.120;6.192;2022-07-06T09:09:03;1.70;;;0.45;;
18102;SDS011;9178;51.120;6.192;2022-07-06T09:11:31;2.97;;;0.40;;
18102;SDS011;9178;51.120;6.192;2022-07-06T09:13:58;0.47;;;0.20;;
18102;SDS011;9178;51.120;6.192;2022-07-06T09:16:26;2.65;;;0.43;;
18102;SDS011;9178;51.120;6.192;2022-07-06T09:18:54;1.08;;;0.40;;
18102;SDS011;9178;51.120;6.192;2022-07-06T09:21:24;2.45;;;0.50;;
18102;SDS011;9178;51.120;6.192;2022-07-06T09:23:54;1.83;;;0.28;;
18102;SDS011;9178;51.120;6.192;2022-07-06T09:26:21;2.25;;;0.52;;
18102;SDS011;9178;51.120;6.192;2022-07-06T09:28:50;3.30;;;0.45;;
18102;SDS011;9178;51.120;6.192;2022-07-06T09:31:17;4.28;;;0.30;;
18102;SDS011;9178;51.120;6.192;2022-07-06T09:33:54;3.90;;;0.60;;
18102;SDS011;9178;51.120;6.192;2022-07-06T09:36:40;2.47;;;0.50;;
18102;SDS011;9178;51.120;6.192;2022-07-06T09:39:14;1.27;;;0.50;;
18102;SDS011;9178;51.120;6.192;2022-07-06T09:41:46;1.33;;;0.30;;
18102;SDS011;9178;51.120;6.192;2022-07-06T09:44:18;1.42;;;0.20;;
18102;SDS011;9178;51.120;6.192;2022-07-06T09:46:46;0.60;;;0.40;;
18102;SDS011;9178;51.120;6.192;2022-07-06T09:49:16;1.45;;;0.52;;
18102;SDS011;9178;51.120;6.192;2022-07-06T09:51:45;1.67;;;0.38;;
18102;SDS011;9178;51.120;6.192;2022-07-06T09:54:12;1.23;;;0.40;;
18102;SDS011;9178;51.120;6.192;2022-07-06T09:56:42;0.70;;;0.45;;
18102;SDS011;9178;51.120;6.192;2022-07-06T09:59:13;2.25;;;0.40;;
18102;SDS011;9178;51.120;6.192;2022-07-06T10:01:41;1.73;;;0.57;;
18102;SDS011;9178;51.120;6.192;2022-07-06T10:04:09;1.27;;;0.50;;
18102;SDS011;9178;51.120;6.192;2022-07-06T10:06:38;1.05;;;0.50;;
18102;SDS011;9178;51.120;6.192;2022-07-06T10:09:07;2.40;;;0.50;;
18102;SDS011;9178;51.120;6.192;2022-07-06T10:11:37;3.47;;;0.80;;
18102;SDS011;9178;51.120;6.192;2022-07-06T10:14:05;1.17;;;0.40;;
18102;SDS011;9178;51.120;6.192;2022-07-06T10:16:33;1.77;;;0.45;;
18102;SDS011;9178;51.120;6.192;2022-07-06T10:19:02;0.93;;;0.50;;
18102;SDS011;9178;51.120;6.192;2022-07-06T10:21:32;1.48;;;0.40;;
18102;SDS011;9178;51.120;6.192;2022-07-06T10:24:00;1.65;;;0.40;;
18102;SDS011;9178;51.120;6.192;2022-07-06T10:26:29;1.23;;;0.40;;
18102;SDS011;9178;51.120;6.192;2022-07-06T10:28:58;2.33;;;0.52;;
18102;SDS011;9178;51.120;6.192;2022-07-06T10:31:25;0.98;;;0.30;;
18102;SDS011;9178;51.120;6.192;2022-07-06T10:33:54;1.20;;;0.65;;
18102;SDS011;9178;51.120;6.192;2022-07-06T10:36:23;5.20;;;0.55;;
18102;SDS011;9178;51.120;6.192;2022-07-06T10:38:51;0.28;;;0.20;;
18102;SDS011;9178;51.120;6.192;2022-07-06T10:41:29;1.08;;;0.43;;
18102;SDS011;9178;51.120;6.192;2022-07-06T10:44:06;0.65;;;0.30;;
18102;SDS011;9178;51.120;6.192;2022-07-06T10:46:41;1.42;;;0.45;;
18102;SDS011;9178;51.120;6.192;2022-07-06T10:49:17;0.77;;;0.43;;
18102;SDS011;9178;51.120;6.192;2022-07-06T10:51:45;0.75;;;0.22;;
18102;SDS011;9178;51.120;6.192;2022-07-06T10:54:15;1.00;;;0.40;;
18102;SDS011;9178;51.120;6.192;2022-07-06T10:56:45;1.27;;;0.40;;
18102;SDS011;9178;51.120;6.192;2022-07-06T10:59:13;1.00;;;0.50;;
18102;SDS011;9178;51.120;6.192;2022-07-06T11:01:41;3.03;;;0.73;;
18102;SDS011;9178;51.120;6.192;2022-07-06T11:04:38;1.88;;;0.50;;
18102;SDS011;9178;51.120;6.192;2022-07-06T11:07:07;1.42;;;0.30;;
18102;SDS011;9178;51.120;6.192;2022-07-06T11:09:35;3.10;;;0.90;;
18102;SDS011;9178;51.120;6.192;2022-07-06T11:12:13;1.40;;;0.55;;
18102;SDS011;9178;51.120;6.192;2022-07-06T11:14:43;1.48;;;0.50;;
18102;SDS011;9178;51.120;6.192;2022-07-06T11:17:11;2.28;;;0.50;;
18102;SDS011;9178;51.120;6.192;2022-07-06T11:19:48;0.90;;;0.50;;
18102;SDS011;9178;51.120;6.192;2022-07-06T11:22:16;1.80;;;0.60;;
18102;SDS011;9178;51.120;6.192;2022-07-06T11:24:45;0.50;;;0.50;;
18102;SDS011;9178;51.120;6.192;2022-07-06T11:27:13;1.38;;;0.47;;
18102;SDS011;9178;51.120;6.192;2022-07-06T11:29:40;1.27;;;0.50;;
18102;SDS011;9178;51.120;6.192;2022-07-06T11:32:09;0.57;;;0.38;;
18102;SDS011;9178;51.120;6.192;2022-07-06T11:34:36;2.85;;;0.60;;
18102;SDS011;9178;51.120;6.192;2022-07-06T11:37:04;2.50;;;0.75;;
18102;SDS011;9178;51.120;6.192;2022-07-06T11:39:33;0.95;;;0.70;;
18102;SDS011;9178;51.120;6.192;2022-07-06T11:42:02;0.85;;;0.60;;
18102;SDS011;9178;51.120;6.192;2022-07-06T11:44:31;2.58;;;0.90;;
18102;SDS011;9178;51.120;6.192;2022-07-06T11:46:59;2.08;;;0.57;;
18102;SDS011;9178;51.120;6.192;2022-07-06T11:49:28;1.85;;;0.65;;
18102;SDS011;9178;51.120;6.192;2022-07-06T11:51:55;0.80;;;0.45;;
18102;SDS011;9178;51.120;6.192;2022-07-06T11:54:23;2.30;;;0.95;;
18102;SDS011;9178;51.120;6.192;2022-07-06T11:56:51;0.80;;;0.57;;
18102;SDS011;9178;51.120;6.192;2022-07-06T11:59:22;0.98;;;0.40;;
18102;SDS011;9178;51.120;6.192;2022-07-06T12:01:58;1.85;;;0.52;;
18102;SDS011;9178;51.120;6.192;2022-07-06T12:04:26;1.20;;;0.40;;
18102;SDS011;9178;51.120;6.192;2022-07-06T12:06:53;1.35;;;0.50;;
18102;SDS011;9178;51.120;6.192;2022-07-06T12:09:20;1.13;;;0.40;;
18102;SDS011;9178;51.120;6.192;2022-07-06T12:11:47;2.08;;;0.70;;
18102;SDS011;9178;51.120;6.192;2022-07-06T12:14:16;1.08;;;0.32;;
18102;SDS011;9178;51.120;6.192;2022-07-06T12:16:46;1.00;;;0.50;;
18102;SDS011;9178;51.120;6.192;2022-07-06T12:19:16;1.27;;;0.50;;
18102;SDS011;9178;51.120;6.192;2022-07-06T12:21:46;1.52;;;0.40;;
18102;SDS011;9178;51.120;6.192;2022-07-06T12:24:20;1.42;;;0.40;;
18102;SDS011;9178;51.120;6.192;2022-07-06T12:26:49;0.73;;;0.47;;
18102;SDS011;9178;51.120;6.192;2022-07-06T12:29:16;1.90;;;0.60;;
18102;SDS011;9178;51.120;6.192;2022-07-06T12:31:48;1.17;;;0.73;;
18102;SDS011;9178;51.120;6.192;2022-07-06T12:34:18;2.58;;;0.50;;
18102;SDS011;9178;51.120;6.192;2022-07-06T12:36:46;1.85;;;0.60;;
18102;SDS011;9178;51.120;6.192;2022-07-06T12:39:15;1.05;;;0.45;;
18102;SDS011;9178;51.120;6.192;2022-07-06T12:41:46;1.42;;;0.50;;
18102;SDS011;9178;51.120;6.192;2022-07-06T12:44:15;1.50;;;0.77;;
18102;SDS011;9178;51.120;6.192;2022-07-06T12:46:43;1.35;;;0.45;;
18102;SDS011;9178;51.120;6.192;2022-07-06T12:49:11;1.33;;;0.50;;
18102;SDS011;9178;51.120;6.192;2022-07-06T12:51:57;2.33;;;0.60;;
18102;SDS011;9178;51.120;6.192;2022-07-06T12:54:26;1.90;;;0.60;;
18102;SDS011;9178;51.120;6.192;2022-07-06T12:57:03;1.48;;;0.30;;
18102;SDS011;9178;51.120;6.192;2022-07-06T12:59:32;1.33;;;0.50;;
18102;SDS011;9178;51.120;6.192;2022-07-06T13:02:01;2.13;;;0.52;;
18102;SDS011;9178;51.120;6.192;2022-07-06T13:04:29;0.98;;;0.60;;
18102;SDS011;9178;51.120;6.192;2022-07-06T13:06:59;2.20;;;0.50;;
18102;SDS011;9178;51.120;6.192;2022-07-06T13:09:27;1.23;;;0.50;;
18102;SDS011;9178;51.120;6.192;2022-07-06T13:11:54;0.93;;;0.47;;
18102;SDS011;9178;51.120;6.192;2022-07-06T13:14:21;3.70;;;0.73;;
18102;SDS011;9178;51.120;6.192;2022-07-06T13:16:48;1.23;;;0.40;;
18102;SDS011;9178;51.120;6.192;2022-07-06T13:19:15;1.73;;;0.60;;
18102;SDS011;9178;51.120;6.192;2022-07-06T13:21:42;4.47;;;0.52;;
18102;SDS011;9178;51.120;6.192;2022-07-06T13:24:12;1.08;;;0.30;;
18102;SDS011;9178;51.120;6.192;2022-07-06T13:26:39;1.55;;;0.30;;
18102;SDS011;9178;51.120;6.192;2022-07-06T13:29:06;0.73;;;0.50;;
18102;SDS011;9178;51.120;6.192;2022-07-06T13:31:35;1.00;;;0.68;;
18102;SDS011;9178;51.120;6.192;2022-07-06T13:34:03;1.83;;;0.50;;
18102;SDS011;9178;51.120;6.192;2022-07-06T13:36:30;0.75;;;0.50;;
18102;SDS011;9178;51.120;6.192;2022-07-06T13:38:57;1.02;;;0.57;;
18102;SDS011;9178;51.120;6.192;2022-07-06T13:41:25;0.60;;;0.43;;
18102;SDS011;9178;51.120;6.192;2022-07-06T13:43:52;0.77;;;0.30;;
18102;SDS011;9178;51.120;6.192;2022-07-06T13:46:19;0.85;;;0.50;;
18102;SDS011;9178;51.120;6.192;2022-07-06T13:48:46;1.85;;;0.77;;
18102;SDS011;9178;51.120;6.192;2022-07-06T13:51:13;0.80;;;0.60;;
18102;SDS011;9178;51.120;6.192;2022-07-06T13:53:40;1.75;;;0.38;;
18102;SDS011;9178;51.120;6.192;2022-07-06T13:56:08;2.60;;;0.50;;
18102;SDS011;9178;51.120;6.192;2022-07-06T13:58:36;0.85;;;0.40;;
18102;SDS011;9178;51.120;6.192;2022-07-06T14:01:03;0.60;;;0.30;;
18102;SDS011;9178;51.120;6.192;2022-07-06T14:03:30;1.73;;;0.40;;
18102;SDS011;9178;51.120;6.192;2022-07-06T14:05:57;1.75;;;0.40;;
18102;SDS011;9178;51.120;6.192;2022-07-06T14:08:25;0.82;;;0.55;;
18102;SDS011;9178;51.120;6.192;2022-07-06T14:10:53;1.52;;;0.45;;
18102;SDS011;9178;51.120;6.192;2022-07-06T14:13:21;1.15;;;0.40;;
18102;SDS011;9178;51.120;6.192;2022-07-06T14:15:50;1.02;;;0.47;;
18102;SDS011;9178;51.120;6.192;2022-07-06T14:18:17;1.27;;;0.57;;
18102;SDS011;9178;51.120;6.192;2022-07-06T14:20:44;1.17;;;0.60;;
18102;SDS011;9178;51.120;6.192;2022-07-06T14:23:14;1.33;;;0.63;;
18102;SDS011;9178;51.120;6.192;2022-07-06T14:25:42;1.15;;;0.50;;
18102;SDS011;9178;51.120;6.192;2022-07-06T14:28:09;1.45;;;0.45;;
18102;SDS011;9178;51.120;6.192;2022-07-06T14:30:38;1.48;;;0.47;;
18102;SDS011;9178;51.120;6.192;2022-07-06T14:33:08;1.00;;;0.40;;
18102;SDS011;9178;51.120;6.192;2022-07-06T14:35:35;0.55;;;0.45;;
18102;SDS011;9178;51.120;6.192;2022-07-06T14:38:03;0.85;;;0.28;;
18102;SDS011;9178;51.120;6.192;2022-07-06T14:40:31;1.38;;;0.50;;
18102;SDS011;9178;51.120;6.192;2022-07-06T14:42:58;1.05;;;0.38;;
18102;SDS011;9178;51.120;6.192;2022-07-06T14:45:25;0.50;;;0.50;;
18102;SDS011;9178;51.120;6.192;2022-07-06T14:47:53;1.42;;;0.60;;
18102;SDS011;9178;51.120;6.192;2022-07-06T14:50:21;0.68;;;0.50;;
18102;SDS011;9178;51.120;6.192;2022-07-06T14:52:49;0.43;;;0.30;;
18102;SDS011;9178;51.120;6.192;2022-07-06T14:55:16;1.70;;;0.73;;
18102;SDS011;9178;51.120;6.192;2022-07-06T14:57:43;1.50;;;0.60;;
18102;SDS011;9178;51.120;6.192;2022-07-06T15:00:10;1.95;;;0.50;;
18102;SDS011;9178;51.120;6.192;2022-07-06T15:02:38;0.68;;;0.30;;
18102;SDS011;9178;51.120;6.192;2022-07-06T15:05:05;1.42;;;0.60;;